createdAt,value
2017-12-19T00:00:54.618Z,38.35
2017-12-19T00:02:03.855Z,42.40
2017-12-19T00:03:12.298Z,41.37
2017-12-19T00:04:20.822Z,42.03
2017-12-19T00:05:25.168Z,47.10
2017-12-19T00:06:29.981Z,46.30
2017-12-19T00:07:34.094Z,54.85
2017-12-19T00:08:39.047Z,65.23
2017-12-19T00:09:43.861Z,66.30
2017-12-19T00:10:54.422Z,113.37
2017-12-19T00:12:01.715Z,69.78
2017-12-19T00:13:10.009Z,73.18
2017-12-19T00:14:14.212Z,56.08
2017-12-19T00:15:18.510Z,49.20
2017-12-19T00:16:23.524Z,46.10
2017-12-19T00:17:32.707Z,42.72
2017-12-19T00:18:38.253Z,35.10
2017-12-19T00:19:44.063Z,41.35
2017-12-19T00:20:48.401Z,39.97
2017-12-19T00:21:52.627Z,38.33
2017-12-19T00:22:57.199Z,41.42
2017-12-19T00:24:01.354Z,46.90
2017-12-19T00:25:06.441Z,41.53
2017-12-19T00:26:11.698Z,42.65
2017-12-19T00:27:16.596Z,46.28
2017-12-19T00:28:21.012Z,50.92
2017-12-19T00:29:25.787Z,44.70
2017-12-19T00:30:30.004Z,43.28
2017-12-19T00:31:34.318Z,55.55
2017-12-19T00:32:38.341Z,55.15
2017-12-19T00:33:42.732Z,48.28
2017-12-19T00:34:47.047Z,49.58
2017-12-19T00:35:52.979Z,54.70
2017-12-19T00:36:57.512Z,52.47
2017-12-19T00:38:02.006Z,59.72
2017-12-19T00:39:09.697Z,53.95
2017-12-19T00:40:14.384Z,52.62
2017-12-19T00:41:18.617Z,63.65
2017-12-19T00:42:23.031Z,54.63
2017-12-19T00:43:28.270Z,54.90
2017-12-19T00:44:33.583Z,54.95
2017-12-19T00:45:37.739Z,59.40
2017-12-19T00:46:42.546Z,54.67
2017-12-19T00:47:47.540Z,59.83
2017-12-19T00:48:51.653Z,52.65
2017-12-19T00:49:56.125Z,53.63
2017-12-19T00:51:01.072Z,53.38
2017-12-19T00:52:05.546Z,54.33
2017-12-19T00:53:09.686Z,54.17
2017-12-19T00:54:13.991Z,57.58
2017-12-19T00:55:18.706Z,50.58
2017-12-19T00:56:23.071Z,49.28
2017-12-19T00:57:29.277Z,53.40
2017-12-19T00:58:33.494Z,59.40
2017-12-19T00:59:38.084Z,54.08
2017-12-19T01:00:42.544Z,54.53
2017-12-19T01:01:47.587Z,46.60
2017-12-19T01:02:52.292Z,53.03
2017-12-19T01:03:57.546Z,52.08
2017-12-19T01:05:02.165Z,55.55
2017-12-19T01:06:06.427Z,58.95
2017-12-19T01:07:11.463Z,62.33
2017-12-19T01:08:16.940Z,69.18
2017-12-19T01:09:21.892Z,67.70
2017-12-19T01:10:26.399Z,70.10
2017-12-19T01:11:31.386Z,57.13
2017-12-19T01:12:36.357Z,71.32
2017-12-19T01:13:41.351Z,62.67
2017-12-19T01:14:45.893Z,67.20
2017-12-19T01:15:51.393Z,66.10
2017-12-19T01:16:55.639Z,67.65
2017-12-19T01:18:00.629Z,69.73
2017-12-19T01:19:04.859Z,70.70
2017-12-19T01:20:08.898Z,71.20
2017-12-19T01:21:13.063Z,67.13
2017-12-19T01:22:17.228Z,67.40
2017-12-19T01:23:21.545Z,64.32
2017-12-19T01:24:26.257Z,64.28
2017-12-19T01:25:30.358Z,65.90
2017-12-19T01:26:34.458Z,69.10
2017-12-19T01:27:38.562Z,69.03
2017-12-19T01:28:43.458Z,73.00
2017-12-19T01:29:48.201Z,73.45
2017-12-19T01:30:52.925Z,70.87
2017-12-19T01:31:57.149Z,70.85
2017-12-19T01:33:01.375Z,74.90
2017-12-19T01:34:06.613Z,70.53
2017-12-19T01:35:11.611Z,80.30
2017-12-19T01:36:16.070Z,76.03
2017-12-19T01:37:20.814Z,71.03
2017-12-19T01:38:25.048Z,74.20
2017-12-19T01:39:29.843Z,69.80
2017-12-19T01:40:34.549Z,80.00
2017-12-19T01:41:38.894Z,76.70
2017-12-19T01:42:44.583Z,71.78
2017-12-19T01:43:49.146Z,82.10
2017-12-19T01:44:53.569Z,73.20
2017-12-19T01:45:58.541Z,79.62
2017-12-19T01:47:02.855Z,81.40
2017-12-19T01:48:07.123Z,72.70
2017-12-19T01:49:11.098Z,77.43
2017-12-19T01:50:15.573Z,74.28
2017-12-19T01:51:19.737Z,74.07
2017-12-19T01:52:24.099Z,73.40
2017-12-19T01:53:30.006Z,103.07
2017-12-19T01:54:34.614Z,85.12
2017-12-19T01:55:39.364Z,82.53
2017-12-19T01:56:43.510Z,74.03
2017-12-19T01:57:48.770Z,75.20
2017-12-19T01:58:53.317Z,84.28
2017-12-19T01:59:57.783Z,78.87
2017-12-19T02:01:01.952Z,82.05
2017-12-19T02:02:06.011Z,80.75
2017-12-19T02:03:10.628Z,79.10
2017-12-19T02:04:15.046Z,83.70
2017-12-19T02:05:19.520Z,80.10
2017-12-19T02:06:24.073Z,87.18
2017-12-19T02:07:28.310Z,83.43
2017-12-19T02:08:32.444Z,82.62
2017-12-19T02:09:37.516Z,86.70
2017-12-19T02:10:41.762Z,86.18
2017-12-19T02:11:47.082Z,80.28
2017-12-19T02:12:52.484Z,92.82
2017-12-19T02:13:56.721Z,88.68
2017-12-19T02:15:01.843Z,90.72
2017-12-19T02:16:07.191Z,83.25
2017-12-19T02:17:11.590Z,90.87
2017-12-19T02:18:16.678Z,87.10
2017-12-19T02:19:20.783Z,91.18
2017-12-19T02:20:24.870Z,89.35
2017-12-19T02:21:29.283Z,89.65
2017-12-19T02:22:33.678Z,86.18
2017-12-19T02:23:38.033Z,97.65
2017-12-19T02:24:42.809Z,102.05
2017-12-19T02:25:48.798Z,103.00
2017-12-19T02:26:53.785Z,105.75
2017-12-19T02:27:59.253Z,109.95
2017-12-19T02:29:04.415Z,124.60
2017-12-19T02:30:09.061Z,110.35
2017-12-19T02:31:13.458Z,114.85
2017-12-19T02:32:18.693Z,118.13
2017-12-19T02:33:23.036Z,115.18
2017-12-19T02:34:27.723Z,112.40
2017-12-19T02:35:32.647Z,112.53
2017-12-19T02:36:37.519Z,117.90
2017-12-19T02:37:42.504Z,120.35
2017-12-19T02:38:51.653Z,122.90
2017-12-19T02:39:56.100Z,121.53
2017-12-19T02:41:00.505Z,124.43
2017-12-19T02:42:04.829Z,111.82
2017-12-19T02:43:26.759Z,114.37
2017-12-19T02:44:32.235Z,115.40
2017-12-19T02:45:37.245Z,114.80
2017-12-19T02:46:41.977Z,121.93
2017-12-19T02:47:50.397Z,112.32
2017-12-19T02:48:55.453Z,117.35
2017-12-19T02:50:00.351Z,111.97
2017-12-19T02:51:04.732Z,118.37
2017-12-19T02:52:10.731Z,117.45
2017-12-19T02:53:16.558Z,125.13
2017-12-19T02:54:21.162Z,120.18
2017-12-19T02:55:25.737Z,117.15
2017-12-19T02:56:31.139Z,113.90
2017-12-19T02:57:35.780Z,112.63
2017-12-19T02:58:41.668Z,115.55
2017-12-19T02:59:46.525Z,106.47
2017-12-19T03:00:52.142Z,108.35
2017-12-19T03:01:56.735Z,110.32
2017-12-19T03:03:01.418Z,117.40
2017-12-19T03:04:06.608Z,116.85
2017-12-19T03:05:10.881Z,117.80
2017-12-19T03:06:15.435Z,120.75
2017-12-19T03:07:20.251Z,116.32
2017-12-19T03:08:25.192Z,126.40
2017-12-19T03:09:30.105Z,112.57
2017-12-19T03:10:34.879Z,115.78
2017-12-19T03:11:39.775Z,123.90
2017-12-19T03:12:45.163Z,115.70
2017-12-19T03:13:49.536Z,113.88
2017-12-19T03:14:54.093Z,113.60
2017-12-19T03:15:58.856Z,112.85
2017-12-19T03:17:03.645Z,113.22
2017-12-19T03:18:08.467Z,110.20
2017-12-19T03:19:12.992Z,116.97
2017-12-19T03:20:17.675Z,106.40
2017-12-19T03:21:22.379Z,105.50
2017-12-19T03:22:27.054Z,110.63
2017-12-19T03:23:32.446Z,107.68
2017-12-19T03:24:36.922Z,105.70
2017-12-19T03:25:41.497Z,100.80
2017-12-19T03:26:46.148Z,104.10
2017-12-19T03:27:51.223Z,104.68
2017-12-19T03:28:55.714Z,101.10
2017-12-19T03:30:00.343Z,105.03
2017-12-19T03:31:04.806Z,104.15
2017-12-19T03:32:09.474Z,96.68
2017-12-19T03:33:14.350Z,102.28
2017-12-19T03:34:19.252Z,102.45
2017-12-19T03:35:23.924Z,101.12
2017-12-19T03:36:28.516Z,92.85
2017-12-19T03:37:33.352Z,93.23
2017-12-19T03:38:37.968Z,92.32
2017-12-19T03:39:42.529Z,102.75
2017-12-19T03:40:47.376Z,99.37
2017-12-19T03:41:51.854Z,93.47
2017-12-19T03:42:56.783Z,102.95
2017-12-19T03:44:01.465Z,93.95
2017-12-19T03:45:06.504Z,92.75
2017-12-19T03:46:12.082Z,91.22
2017-12-19T03:47:16.517Z,99.90
2017-12-19T03:48:21.372Z,93.75
2017-12-19T03:49:26.303Z,91.05
2017-12-19T03:50:30.967Z,93.80
2017-12-19T03:51:35.969Z,96.07
2017-12-19T03:52:40.522Z,89.25
2017-12-19T03:53:44.896Z,95.65
2017-12-19T03:54:49.832Z,93.80
2017-12-19T03:55:54.974Z,97.18
2017-12-19T03:56:59.647Z,95.25
2017-12-19T03:58:04.494Z,121.70
2017-12-19T03:59:08.585Z,148.20
2017-12-19T04:00:13.029Z,136.15
2017-12-19T04:01:17.459Z,98.80
2017-12-19T04:02:22.621Z,91.43
2017-12-19T04:03:26.878Z,94.77
2017-12-19T04:04:31.151Z,91.28
2017-12-19T04:05:35.461Z,97.53
2017-12-19T04:06:39.592Z,107.70
2017-12-19T04:07:44.270Z,155.98
2017-12-19T04:08:48.361Z,101.25
2017-12-19T04:09:52.644Z,91.12
2017-12-19T04:10:57.788Z,89.32
2017-12-19T04:12:01.855Z,86.18
2017-12-19T04:13:07.237Z,82.60
2017-12-19T04:14:11.514Z,86.47
2017-12-19T04:15:15.689Z,89.78
2017-12-19T04:16:19.855Z,86.60
2017-12-19T04:17:24.459Z,87.62
2017-12-19T04:18:29.404Z,92.00
2017-12-19T04:19:33.805Z,93.15
2017-12-19T04:20:38.369Z,93.10
2017-12-19T04:21:43.112Z,96.90
2017-12-19T04:22:47.874Z,90.40
2017-12-19T04:23:52.334Z,97.47
2017-12-19T04:24:56.554Z,97.05
2017-12-19T04:26:00.861Z,97.78
2017-12-19T04:27:05.319Z,95.80
2017-12-19T04:28:09.531Z,95.03
2017-12-19T04:29:13.876Z,95.95
2017-12-19T04:30:17.973Z,91.25
2017-12-19T04:31:22.302Z,92.85
2017-12-19T04:32:26.587Z,85.90
2017-12-19T04:33:30.926Z,91.85
2017-12-19T04:34:35.769Z,91.47
2017-12-19T04:35:40.155Z,88.12
2017-12-19T04:36:44.682Z,88.85
2017-12-19T04:37:48.999Z,83.45
2017-12-19T04:38:53.172Z,95.05
2017-12-19T04:39:57.989Z,90.72
2017-12-19T04:41:02.898Z,89.35
2017-12-19T04:42:07.983Z,87.35
2017-12-19T04:43:12.672Z,86.07
2017-12-19T04:44:47.703Z,83.43
2017-12-19T04:45:51.725Z,89.55
2017-12-19T04:46:56.866Z,87.68
2017-12-19T04:48:01.072Z,85.80
2017-12-19T04:49:05.961Z,89.18
2017-12-19T04:50:10.357Z,85.68
2017-12-19T04:51:14.832Z,82.60
2017-12-19T04:52:19.059Z,83.07
2017-12-19T04:53:23.523Z,81.32
2017-12-19T04:54:28.539Z,78.10
2017-12-19T04:55:33.114Z,77.15
2017-12-19T04:56:37.247Z,74.37
2017-12-19T04:57:42.173Z,77.83
2017-12-19T04:58:46.342Z,83.10
2017-12-19T04:59:50.514Z,71.50
2017-12-19T05:00:55.183Z,74.82
2017-12-19T05:01:59.395Z,75.30
2017-12-19T05:03:03.776Z,82.20
2017-12-19T05:04:08.081Z,80.10
2017-12-19T05:05:12.840Z,80.10
2017-12-19T05:06:18.034Z,78.55
2017-12-19T05:07:22.327Z,71.82
2017-12-19T05:08:26.529Z,70.10
2017-12-19T05:09:31.125Z,73.45
2017-12-19T05:10:35.413Z,75.05
2017-12-19T05:11:39.923Z,75.20
2017-12-19T05:12:44.715Z,75.57
2017-12-19T05:13:48.996Z,71.20
2017-12-19T05:14:53.087Z,74.35
2017-12-19T05:15:57.403Z,71.20
2017-12-19T05:17:01.908Z,76.95
2017-12-19T05:18:06.219Z,73.30
2017-12-19T05:19:11.077Z,70.30
2017-12-19T05:20:15.383Z,66.65
2017-12-19T05:21:20.567Z,76.50
2017-12-19T05:22:25.294Z,73.53
2017-12-19T05:23:29.973Z,72.60
2017-12-19T05:24:34.923Z,68.10
2017-12-19T05:25:39.249Z,71.00
2017-12-19T05:26:43.507Z,67.93
2017-12-19T05:27:47.777Z,71.45
2017-12-19T05:28:51.805Z,71.75
2017-12-19T05:29:55.838Z,67.60
2017-12-19T05:31:00.019Z,65.53
2017-12-19T05:32:04.168Z,68.28
2017-12-19T05:33:08.249Z,69.60
2017-12-19T05:34:12.327Z,70.00
2017-12-19T05:35:18.431Z,66.70
2017-12-19T05:36:22.513Z,68.60
2017-12-19T05:37:26.574Z,68.45
2017-12-19T05:38:30.793Z,68.50
2017-12-19T05:39:34.931Z,65.80
2017-12-19T05:40:39.094Z,71.07
2017-12-19T05:41:44.291Z,71.75
2017-12-19T05:42:49.225Z,68.18
2017-12-19T05:43:54.090Z,68.95
2017-12-19T05:44:58.220Z,69.22
2017-12-19T05:46:02.447Z,61.85
2017-12-19T05:47:07.541Z,65.33
2017-12-19T05:48:12.518Z,65.80
2017-12-19T05:49:16.866Z,70.57
2017-12-19T05:50:21.249Z,65.05
2017-12-19T05:51:25.622Z,65.87
2017-12-19T05:52:30.644Z,67.37
2017-12-19T05:53:35.980Z,73.78
2017-12-19T05:54:40.995Z,70.35
2017-12-19T05:55:46.098Z,70.50
2017-12-19T05:56:50.462Z,68.15
2017-12-19T05:57:54.775Z,67.53
2017-12-19T05:58:59.101Z,63.35
2017-12-19T06:00:03.539Z,64.15
2017-12-19T06:01:07.872Z,65.85
2017-12-19T06:02:13.293Z,97.80
2017-12-19T06:03:18.309Z,100.75
2017-12-19T06:04:22.618Z,85.03
2017-12-19T06:05:27.618Z,80.97
2017-12-19T06:06:31.974Z,73.20
2017-12-19T06:07:36.355Z,69.18
2017-12-19T06:09:19.515Z,68.25
2017-12-19T06:10:23.813Z,67.05
2017-12-19T06:11:28.285Z,61.58
2017-12-19T06:13:35.123Z,59.08
2017-12-19T06:14:39.239Z,58.30
2017-12-19T06:15:43.454Z,66.22
2017-12-19T06:16:47.574Z,58.05
2017-12-19T06:17:51.961Z,59.35
2017-12-19T06:18:56.292Z,57.40
2017-12-19T06:20:00.645Z,64.53
2017-12-19T06:21:04.987Z,68.15
2017-12-19T06:22:10.051Z,62.60
2017-12-19T06:23:14.409Z,61.65
2017-12-19T06:24:19.301Z,70.45
2017-12-19T06:25:23.845Z,60.28
2017-12-19T06:26:28.418Z,58.90
2017-12-19T06:27:32.724Z,62.78
2017-12-19T06:28:37.044Z,63.45
2017-12-19T06:29:41.392Z,60.57
2017-12-19T06:30:45.790Z,68.50
2017-12-19T06:31:50.130Z,63.38
2017-12-19T06:32:54.259Z,64.20
2017-12-19T06:33:58.354Z,61.08
2017-12-19T06:35:03.571Z,65.53
2017-12-19T06:36:08.548Z,65.27
2017-12-19T06:37:12.678Z,64.50
2017-12-19T06:38:16.822Z,64.93
2017-12-19T06:39:20.984Z,57.47
2017-12-19T06:40:25.164Z,62.92
2017-12-19T06:41:29.321Z,65.97
2017-12-19T06:42:34.162Z,67.65
2017-12-19T06:43:38.264Z,64.87
2017-12-19T06:44:42.473Z,68.83
2017-12-19T06:45:47.731Z,73.00
2017-12-19T06:46:51.819Z,81.80
2017-12-19T06:47:55.923Z,64.18
2017-12-19T06:49:00.035Z,76.72
2017-12-19T06:50:04.132Z,72.70
2017-12-19T06:51:08.439Z,72.40
2017-12-19T06:53:15.390Z,72.20
2017-12-19T06:54:19.728Z,82.97
2017-12-19T06:55:24.107Z,73.60
2017-12-19T06:56:28.617Z,71.05
2017-12-19T06:57:33.786Z,70.93
2017-12-19T06:58:38.071Z,86.40
2017-12-19T06:59:42.202Z,81.37
2017-12-19T07:00:46.360Z,78.43
2017-12-19T07:01:50.466Z,75.78
2017-12-19T07:02:54.500Z,75.28
2017-12-19T07:03:58.550Z,81.22
2017-12-19T07:05:02.739Z,73.25
2017-12-19T07:06:07.723Z,78.35
2017-12-19T07:07:11.880Z,78.72
2017-12-19T07:08:16.151Z,75.60
2017-12-19T07:09:20.478Z,86.78
2017-12-19T07:10:25.929Z,89.23
2017-12-19T07:11:30.210Z,75.20
2017-12-19T07:12:35.398Z,76.55
2017-12-19T07:13:39.734Z,84.03
2017-12-19T07:14:44.005Z,75.90
2017-12-19T07:15:48.259Z,92.35
2017-12-19T07:16:53.102Z,80.80
2017-12-19T07:17:57.309Z,144.03
2017-12-19T07:19:02.209Z,423.62
2017-12-19T07:20:07.163Z,164.40
2017-12-19T07:21:11.330Z,145.07
2017-12-19T07:22:16.811Z,100.43
2017-12-19T07:23:20.948Z,91.12
2017-12-19T07:24:25.080Z,78.95
2017-12-19T07:25:30.205Z,83.65
2017-12-19T07:26:35.237Z,106.18
2017-12-19T07:27:40.169Z,85.68
2017-12-19T07:28:44.506Z,104.72
2017-12-19T07:29:48.704Z,102.05
2017-12-19T07:30:53.642Z,104.68
2017-12-19T07:31:57.857Z,90.50
2017-12-19T07:33:02.033Z,86.85
2017-12-19T07:34:06.187Z,93.18
2017-12-19T07:35:11.065Z,95.93
2017-12-19T07:36:15.156Z,91.40
2017-12-19T07:37:19.312Z,92.97
2017-12-19T07:38:23.407Z,95.60
2017-12-19T07:39:28.523Z,96.65
2017-12-19T07:40:33.490Z,88.37
2017-12-19T07:41:37.817Z,93.62
2017-12-19T07:42:42.146Z,107.20
2017-12-19T07:43:46.522Z,85.47
2017-12-19T07:44:50.786Z,85.80
2017-12-19T07:45:55.145Z,90.97
2017-12-19T07:46:59.478Z,96.93
2017-12-19T07:48:03.751Z,79.47
2017-12-19T07:49:07.836Z,84.60
2017-12-19T07:50:12.670Z,86.30
2017-12-19T07:51:16.698Z,81.55
2017-12-19T07:52:20.858Z,78.62
2017-12-19T07:53:25.269Z,92.85
2017-12-19T07:54:30.107Z,88.28
2017-12-19T07:55:34.147Z,95.30
2017-12-19T07:56:38.237Z,78.75
2017-12-19T07:57:42.339Z,86.53
2017-12-19T07:58:46.830Z,87.72
2017-12-19T07:59:51.188Z,83.95
2017-12-19T08:00:56.195Z,95.95
2017-12-19T08:02:00.427Z,92.68
2017-12-19T08:03:05.468Z,88.32
2017-12-19T08:04:09.721Z,83.72
2017-12-19T08:05:14.007Z,87.18
2017-12-19T08:06:18.230Z,92.60
2017-12-19T08:07:22.436Z,89.85
2017-12-19T08:08:26.463Z,88.22
2017-12-19T08:09:31.443Z,84.95
2017-12-19T08:10:35.932Z,85.20
2017-12-19T08:11:40.020Z,82.40
2017-12-19T08:12:44.838Z,84.70
2017-12-19T08:13:49.688Z,75.47
2017-12-19T08:14:53.794Z,78.75
2017-12-19T08:15:58.453Z,84.62
2017-12-19T08:17:02.637Z,91.35
2017-12-19T08:18:07.032Z,87.28
2017-12-19T08:19:11.185Z,94.10
2017-12-19T08:20:16.170Z,93.10
2017-12-19T08:21:20.236Z,87.82
2017-12-19T08:22:24.325Z,88.80
2017-12-19T08:23:29.488Z,83.55
2017-12-19T08:24:33.549Z,87.12
2017-12-19T08:25:38.434Z,86.87
2017-12-19T08:26:42.447Z,81.63
2017-12-19T08:27:46.451Z,89.35
2017-12-19T08:28:51.488Z,87.80
2017-12-19T08:29:56.650Z,95.07
2017-12-19T08:31:00.948Z,91.82
2017-12-19T08:32:05.194Z,78.55
2017-12-19T08:33:09.414Z,88.20
2017-12-19T08:34:14.458Z,86.22
2017-12-19T08:35:19.579Z,93.37
2017-12-19T08:36:24.743Z,92.03
2017-12-19T08:37:28.942Z,92.60
2017-12-19T08:38:33.199Z,90.20
2017-12-19T08:39:37.429Z,89.68
2017-12-19T08:40:42.719Z,84.20
2017-12-19T08:41:47.041Z,98.97
2017-12-19T08:42:51.463Z,88.30
2017-12-19T08:43:56.564Z,86.50
2017-12-19T08:45:01.066Z,88.95
2017-12-19T08:46:05.249Z,86.07
2017-12-19T08:47:09.609Z,82.20
2017-12-19T08:48:14.545Z,88.87
2017-12-19T08:49:19.506Z,92.53
2017-12-19T08:50:25.328Z,137.70
2017-12-19T08:51:32.020Z,106.32
2017-12-19T08:52:36.239Z,90.22
2017-12-19T08:53:40.447Z,91.47
2017-12-19T08:54:44.629Z,91.72
2017-12-19T08:55:48.822Z,91.18
2017-12-19T08:56:53.045Z,93.37
2017-12-19T08:57:57.235Z,94.15
2017-12-19T08:59:01.555Z,99.35
2017-12-19T09:00:05.916Z,95.68
2017-12-19T09:01:10.820Z,87.80
2017-12-19T09:02:15.837Z,86.00
2017-12-19T09:03:20.357Z,90.55
2017-12-19T09:04:24.533Z,93.47
2017-12-19T09:05:28.767Z,88.65
2017-12-19T09:06:33.102Z,96.28
2017-12-19T09:07:37.393Z,91.82
2017-12-19T09:08:42.368Z,96.72
2017-12-19T09:09:47.032Z,96.05
2017-12-19T09:10:52.035Z,98.35
2017-12-19T09:11:56.269Z,98.00
2017-12-19T09:13:01.217Z,89.72
2017-12-19T09:14:05.540Z,102.50
2017-12-19T09:15:09.818Z,88.70
2017-12-19T09:16:14.092Z,102.05
2017-12-19T09:17:18.950Z,98.55
2017-12-19T09:18:23.202Z,92.72
2017-12-19T09:19:27.554Z,94.93
2017-12-19T09:20:32.022Z,99.80
2017-12-19T09:21:36.304Z,108.78
2017-12-19T09:22:40.594Z,95.43
2017-12-19T09:23:44.802Z,105.50
2017-12-19T09:24:49.098Z,102.38
2017-12-19T09:25:53.322Z,98.60
2017-12-19T09:26:57.493Z,95.87
2017-12-19T09:28:01.632Z,103.25
2017-12-19T09:29:06.077Z,105.40
2017-12-19T09:30:10.322Z,105.80
2017-12-19T09:31:14.679Z,105.75
2017-12-19T09:32:18.878Z,103.43
2017-12-19T09:33:23.423Z,98.62
2017-12-19T09:34:28.455Z,111.22
2017-12-19T09:35:33.445Z,114.15
2017-12-19T09:36:37.560Z,95.82
2017-12-19T09:37:41.666Z,113.72
2017-12-19T09:38:46.557Z,127.45
2017-12-19T09:39:50.565Z,116.45
2017-12-19T09:40:54.609Z,110.55
2017-12-19T09:41:59.524Z,109.20
2017-12-19T09:43:03.800Z,117.05
2017-12-19T09:44:08.645Z,109.03
2017-12-19T09:45:13.545Z,114.18
2017-12-19T09:46:17.533Z,121.50
2017-12-19T09:47:21.600Z,119.62
2017-12-19T09:48:25.889Z,129.80
2017-12-19T09:49:29.943Z,122.37
2017-12-19T09:50:34.026Z,118.37
2017-12-19T09:51:38.064Z,118.05
2017-12-19T09:52:42.854Z,130.10
2017-12-19T09:53:47.759Z,124.75
2017-12-19T09:54:51.803Z,125.78
2017-12-19T09:55:55.995Z,122.13
2017-12-19T09:57:01.795Z,122.65
2017-12-19T09:58:06.466Z,109.95
2017-12-19T09:59:10.778Z,119.97
2017-12-19T10:00:15.882Z,117.95
2017-12-19T10:01:20.414Z,125.53
2017-12-19T10:02:24.578Z,108.43
2017-12-19T10:03:30.251Z,133.70
2017-12-19T10:04:35.982Z,122.95
2017-12-19T10:05:40.669Z,117.62
2017-12-19T10:06:45.180Z,123.60
2017-12-19T10:07:49.588Z,119.15
2017-12-19T10:08:53.881Z,134.90
2017-12-19T10:09:58.254Z,115.80
2017-12-19T10:11:03.637Z,129.82
2017-12-19T10:12:07.898Z,112.10
2017-12-19T10:13:12.847Z,127.32
2017-12-19T10:14:17.090Z,123.75
2017-12-19T10:15:21.399Z,124.53
2017-12-19T10:16:25.477Z,115.78
2017-12-19T10:17:31.626Z,129.20
2017-12-19T10:18:36.261Z,118.03
2017-12-19T10:19:40.511Z,116.57
2017-12-19T10:20:45.296Z,120.95
2017-12-19T10:21:49.725Z,127.45
2017-12-19T10:22:54.494Z,123.35
2017-12-19T10:23:59.176Z,124.75
2017-12-19T10:25:04.594Z,113.10
2017-12-19T10:26:09.814Z,120.70
2017-12-19T10:27:14.287Z,109.75
2017-12-19T10:28:18.749Z,106.57
2017-12-19T10:29:24.020Z,119.37
2017-12-19T10:30:28.347Z,110.47
2017-12-19T10:31:32.989Z,117.37
2017-12-19T10:32:37.201Z,117.43
2017-12-19T10:33:42.348Z,107.03
2017-12-19T10:34:46.563Z,105.22
2017-12-19T10:35:51.549Z,114.13
2017-12-19T10:37:00.553Z,112.62
2017-12-19T10:38:08.182Z,109.85
2017-12-19T10:39:12.553Z,116.20
2017-12-19T10:40:17.589Z,127.60
2017-12-19T10:41:22.930Z,110.70
2017-12-19T10:42:28.006Z,109.22
2017-12-19T10:43:32.262Z,125.45
2017-12-19T10:44:37.427Z,114.20
2017-12-19T10:45:41.666Z,117.10
2017-12-19T10:46:45.954Z,123.45
2017-12-19T10:47:50.212Z,113.55
2017-12-19T10:48:55.309Z,108.05
2017-12-19T10:50:00.363Z,114.65
2017-12-19T10:51:04.681Z,133.80
2017-12-19T10:52:08.674Z,130.07
2017-12-19T10:53:13.784Z,161.37
2017-12-19T10:54:18.760Z,165.40
2017-12-19T10:55:23.065Z,164.23
2017-12-19T10:56:27.304Z,168.60
2017-12-19T10:57:31.507Z,153.93
2017-12-19T10:58:36.521Z,144.35
2017-12-19T10:59:40.803Z,142.50
2017-12-19T11:00:45.138Z,157.73
2017-12-19T11:01:50.220Z,146.73
2017-12-19T11:02:54.331Z,153.70
2017-12-19T11:04:00.019Z,159.82
2017-12-19T11:05:04.819Z,137.82
2017-12-19T11:06:08.855Z,149.75
2017-12-19T11:07:13.674Z,147.55
2017-12-19T11:08:18.532Z,159.43
2017-12-19T11:09:22.643Z,150.45
2017-12-19T11:10:26.767Z,151.85
2017-12-19T11:11:31.461Z,177.85
2017-12-19T11:12:35.653Z,159.05
2017-12-19T11:13:39.999Z,147.20
2017-12-19T11:14:44.487Z,158.02
2017-12-19T11:15:48.722Z,143.93
2017-12-19T11:16:53.758Z,169.65
2017-12-19T11:17:59.270Z,148.38
2017-12-19T11:19:03.819Z,145.32
2017-12-19T11:20:08.811Z,159.50
2017-12-19T11:21:12.875Z,165.65
2017-12-19T11:22:16.967Z,165.05
2017-12-19T11:23:21.172Z,165.35
2017-12-19T11:24:25.345Z,158.83
2017-12-19T11:25:30.340Z,175.87
2017-12-19T11:26:34.499Z,187.37
2017-12-19T11:27:39.098Z,185.03
2017-12-19T11:28:44.039Z,154.52
2017-12-19T11:29:48.483Z,155.85
2017-12-19T11:30:52.979Z,182.75
2017-12-19T11:31:57.500Z,163.73
2017-12-19T11:33:01.958Z,140.95
2017-12-19T11:34:07.184Z,164.43
2017-12-19T11:35:12.465Z,167.23
2017-12-19T11:36:17.209Z,164.73
2017-12-19T11:37:21.559Z,163.62
2017-12-19T11:38:26.000Z,164.57
2017-12-19T11:39:30.640Z,162.70
2017-12-19T11:40:34.913Z,165.47
2017-12-19T11:41:39.085Z,181.15
2017-12-19T11:42:43.898Z,190.18
2017-12-19T11:43:48.810Z,161.20
2017-12-19T11:44:53.927Z,154.68
2017-12-19T11:45:58.224Z,181.23
2017-12-19T11:47:03.129Z,181.27
2017-12-19T11:48:07.217Z,181.95
2017-12-19T11:49:11.413Z,167.35
2017-12-19T11:50:16.704Z,169.77
2017-12-19T11:51:22.006Z,177.48
2017-12-19T11:52:26.275Z,179.73
2017-12-19T11:53:30.671Z,195.75
2017-12-19T11:54:34.932Z,169.13
2017-12-19T11:55:39.255Z,181.37
2017-12-19T11:56:43.540Z,195.77
2017-12-19T11:57:47.627Z,177.50
2017-12-19T11:58:51.690Z,154.63
2017-12-19T11:59:55.701Z,173.45
2017-12-19T12:00:59.809Z,192.10
2017-12-19T12:02:04.323Z,173.82
2017-12-19T12:03:08.479Z,175.65
2017-12-19T12:04:12.686Z,151.82
2017-12-19T12:05:18.796Z,165.40
2017-12-19T12:06:23.052Z,182.40
2017-12-19T12:07:28.198Z,175.18
2017-12-19T12:08:32.461Z,176.30
2017-12-19T12:09:36.731Z,179.65
2017-12-19T12:10:40.873Z,175.87
2017-12-19T12:11:45.161Z,165.65
2017-12-19T12:12:49.420Z,190.25
2017-12-19T12:13:53.662Z,185.23
2017-12-19T12:14:57.791Z,162.98
2017-12-19T12:16:01.904Z,162.25
2017-12-19T12:17:05.995Z,180.18
2017-12-19T12:18:10.064Z,168.48
2017-12-19T12:19:14.161Z,176.95
2017-12-19T12:20:18.244Z,170.07
2017-12-19T12:21:22.316Z,177.45
2017-12-19T12:22:26.435Z,176.48
2017-12-19T12:23:31.375Z,180.57
2017-12-19T12:24:35.464Z,165.12
2017-12-19T12:25:40.738Z,158.05
2017-12-19T12:26:44.819Z,295.10
2017-12-19T12:27:48.963Z,182.18
2017-12-19T12:28:53.010Z,207.80
2017-12-19T12:29:57.312Z,188.77
2017-12-19T12:31:01.787Z,184.30
2017-12-19T12:32:05.874Z,178.18
2017-12-19T12:33:10.024Z,180.27
2017-12-19T12:34:14.873Z,173.85
2017-12-19T12:35:19.002Z,176.35
2017-12-19T12:36:23.110Z,181.15
2017-12-19T12:37:27.239Z,163.40
2017-12-19T12:38:32.112Z,152.32
2017-12-19T12:39:36.222Z,153.27
2017-12-19T12:40:40.265Z,160.07
2017-12-19T12:41:45.196Z,178.30
2017-12-19T12:42:50.290Z,171.98
2017-12-19T12:43:54.324Z,166.65
2017-12-19T12:44:59.205Z,174.15
2017-12-19T12:46:03.435Z,170.30
2017-12-19T12:47:08.281Z,166.25
2017-12-19T12:48:12.497Z,132.18
2017-12-19T12:49:16.654Z,133.82
2017-12-19T12:50:20.756Z,127.90
2017-12-19T12:51:24.947Z,138.07
2017-12-19T12:52:29.283Z,135.48
2017-12-19T12:53:34.405Z,162.35
2017-12-19T12:54:38.694Z,126.78
2017-12-19T12:55:45.486Z,133.00
2017-12-19T12:56:49.757Z,113.65
2017-12-19T12:57:54.060Z,123.82
2017-12-19T12:58:58.334Z,115.40
2017-12-19T13:00:02.926Z,111.25
2017-12-19T13:01:07.299Z,124.97
2017-12-19T13:02:15.580Z,121.35
2017-12-19T13:03:24.414Z,120.00
2017-12-19T13:04:29.295Z,104.78
2017-12-19T13:05:33.522Z,109.37
2017-12-19T13:06:37.774Z,89.43
2017-12-19T13:07:42.854Z,101.32
2017-12-19T13:08:47.171Z,101.25
2017-12-19T13:09:51.660Z,107.35
2017-12-19T13:10:55.827Z,97.28
2017-12-19T13:12:00.075Z,101.57
2017-12-19T13:13:04.124Z,82.97
2017-12-19T13:14:09.023Z,96.07
2017-12-19T13:15:13.907Z,98.18
2017-12-19T13:16:18.259Z,103.45
2017-12-19T13:17:22.415Z,94.80
2017-12-19T13:18:26.514Z,108.87
2017-12-19T13:19:30.657Z,101.28
2017-12-19T13:20:34.777Z,93.05
2017-12-19T13:21:40.093Z,96.40
2017-12-19T13:22:44.273Z,89.65
2017-12-19T13:23:48.875Z,212.25
2017-12-19T13:24:53.037Z,121.97
2017-12-19T13:25:58.015Z,79.55
2017-12-19T13:27:02.222Z,86.63
2017-12-19T13:28:06.309Z,81.78
2017-12-19T13:29:10.415Z,81.78
2017-12-19T13:30:14.691Z,88.22
2017-12-19T13:31:18.735Z,102.82
2017-12-19T13:32:22.779Z,88.70
2017-12-19T13:33:27.878Z,97.47
2017-12-19T13:34:32.765Z,94.37
2017-12-19T13:35:37.043Z,86.30
2017-12-19T13:36:41.278Z,92.12
2017-12-19T13:37:45.546Z,92.25
2017-12-19T13:38:50.049Z,100.12
2017-12-19T13:39:55.230Z,95.30
2017-12-19T13:40:59.478Z,82.17
2017-12-19T13:42:04.450Z,92.53
2017-12-19T13:43:08.751Z,89.40
2017-12-19T13:44:13.074Z,88.72
2017-12-19T13:45:17.308Z,92.03